首页
METAR-TAF:

METAR-TAF

机场 :

坎佩尔, 法国

纬度: 47-58N, 经度: 004-10W, 海拔: 92米

当前天气观测

该预报发布于25分钟前的20:00 UTC
风速8节,风向
温度 9°C
湿度 81%
气压 1020 hPa
能见度10公里或以上
少量云层高于3400英尺
阴天层高于4300英尺

METAR: LFRQ 022000Z AUTO 35008KT 9999 FEW034 OVC043 09/06 Q1020

时间: 22:25 (20:25 UTC)


TAF: 丢失

超过4000个机场的气象观测和天气预报(METAR&TAF报告)。

可查询的气象台以黄色和红色小点在地图上表示。

将鼠标移到小点上方,可查看气象台名称。

然后点击查看天气观测和预报。

如需切换地图:点击带黑十字的绿色按钮放大地图;点击带横线的绿色按钮缩小地图;或者点击绿色箭头查看邻近地区的地图。


METAR-TAF: